Time;durP1;ratioP1;P1;durP2;ratioP2;P2;SDS_P1;SDS_P2;PMS_P1;PMS_P2;Temp;Humidity;BMP_temperature;BMP_pressure;BME280_temperature;BME280_humidity;BME280_pressure;Samples;Min_cycle;Max_cycle;Signal;HPM_P1;HPM_P2
2022/08/05 00:00:34;;;;;;;6.93;6.43;;;26.80;59.60;;;;;;5118532;27;20257;-73
2022/08/05 00:03:00;;;;;;;9.20;5.50;;;26.80;59.50;;;;;;5113335;27;20348;-73
2022/08/05 00:05:25;;;;;;;5.83;5.47;;;26.90;58.90;;;;;;5115258;27;20317;-74
2022/08/05 00:07:51;;;;;;;8.53;6.10;;;27.00;58.80;;;;;;5116232;27;20201;-72
2022/08/05 00:10:17;;;;;;;8.67;6.10;;;27.00;58.50;;;;;;5104868;27;20205;-73
2022/08/05 00:12:43;;;;;;;8.57;6.33;;;27.00;58.70;;;;;;5116814;27;20200;-73
2022/08/05 00:15:09;;;;;;;7.07;6.33;;;26.80;59.10;;;;;;5107852;28;20477;-72
2022/08/05 00:17:34;;;;;;;8.10;6.33;;;26.70;59.30;;;;;;5108080;28;20242;-72
2022/08/05 00:20:00;;;;;;;12.00;6.00;;;26.50;60.00;;;;;;5115968;27;20420;-73
2022/08/05 00:22:25;;;;;;;8.80;6.50;;;26.40;60.00;;;;;;5116253;27;20199;-74
2022/08/05 00:24:51;;;;;;;7.27;6.23;;;26.30;60.40;;;;;;5110214;28;20220;-72
2022/08/05 00:27:16;;;;;;;10.10;6.30;;;26.20;60.10;;;;;;5089106;28;20188;-74
2022/08/05 00:29:42;;;;;;;6.80;5.80;;;26.20;59.60;;;;;;5117305;28;20201;-73
2022/08/05 00:32:11;;;;;;;7.63;6.03;;;26.20;59.60;;;;;;5116823;28;20642;-73
2022/08/05 00:34:38;;;;;;;9.03;6.40;;;26.30;59.50;;;;;;5105417;28;20675;-72
2022/08/05 00:37:03;;;;;;;7.97;6.43;;;26.20;59.90;;;;;;5116892;27;20468;-71
2022/08/05 00:39:29;;;;;;;7.80;6.50;;;26.20;60.30;;;;;;5107948;28;20477;-74
2022/08/05 00:41:54;;;;;;;8.00;5.93;;;26.20;60.70;;;;;;5115189;27;20252;-73
2022/08/05 00:44:20;;;;;;;9.20;6.20;;;26.10;60.90;;;;;;5095504;27;20184;-72
2022/08/05 00:46:45;;;;;;;8.50;6.03;;;26.00;61.00;;;;;;5114103;27;20188;-72
2022/08/05 00:49:11;;;;;;;7.20;6.03;;;26.00;60.70;;;;;;5106498;27;20277;-72
2022/08/05 00:51:36;;;;;;;7.20;6.47;;;26.00;60.10;;;;;;5102213;27;20241;-73
2022/08/05 00:54:03;;;;;;;7.47;5.30;;;26.00;60.00;;;;;;5107229;28;20219;-71
2022/08/05 00:56:28;;;;;;;9.97;6.73;;;26.00;59.90;;;;;;5110084;28;20251;-72
2022/08/05 00:58:54;;;;;;;12.53;6.40;;;25.90;60.40;;;;;;5109307;28;20452;-71
2022/08/05 01:01:19;;;;;;;7.03;6.03;;;25.80;61.20;;;;;;5107005;28;20533;-71
2022/08/05 01:03:45;;;;;;;7.80;6.10;;;25.60;62.20;;;;;;5113639;28;20183;-73
2022/08/05 01:06:11;;;;;;;8.50;5.37;;;25.60;61.30;;;;;;5100113;28;20215;-74
2022/08/05 01:08:36;;;;;;;7.03;4.50;;;25.70;58.80;;;;;;5089339;28;20185;-72
2022/08/05 01:11:18;;;;;;;7.70;4.53;;;26.20;53.00;;;;;;5105156;27;20281;-72
2022/08/05 01:13:47;;;;;;;9.80;4.60;;;26.50;53.20;;;;;;5106919;28;20178;-71
2022/08/05 01:16:20;;;;;;;5.03;4.40;;;26.50;53.40;;;;;;5101399;28;20478;-75
2022/08/05 01:18:49;;;;;;;9.80;4.90;;;26.60;52.90;;;;;;5119376;27;20415;-74
2022/08/05 01:21:48;;;;;;;12.80;4.77;;;26.60;53.20;;;;;;5118676;27;20425;-74
2022/08/05 01:24:38;;;;;;;6.80;4.20;;;26.70;53.20;;;;;;5113229;27;20555;-71
2022/08/05 01:27:22;;;;;;;10.80;4.67;;;26.70;53.80;;;;;;5114918;28;20430;-73
2022/08/05 01:29:51;;;;;;;7.00;4.57;;;26.70;54.50;;;;;;5112134;27;20915;-72
2022/08/05 01:32:22;;;;;;;9.17;5.00;;;26.60;54.60;;;;;;5100264;28;20445;-73
2022/08/05 01:34:55;;;;;;;7.70;4.00;;;26.70;55.00;;;;;;5110778;28;20525;-74
2022/08/05 01:37:42;;;;;;;6.17;4.40;;;26.70;55.20;;;;;;5108617;28;20462;-73
2022/08/05 01:40:09;;;;;;;7.30;4.33;;;26.60;55.80;;;;;;5113530;27;20462;-73
2022/08/05 01:42:38;;;;;;;9.50;4.60;;;26.70;55.80;;;;;;5120650;27;20413;-70
2022/08/05 01:45:06;;;;;;;10.97;4.77;;;26.60;56.10;;;;;;5112773;27;20515;-71
2022/08/05 01:47:34;;;;;;;7.83;4.33;;;26.60;56.80;;;;;;5115880;27;20447;-70
2022/08/05 01:50:04;;;;;;;7.40;4.13;;;26.60;57.00;;;;;;5116408;27;20446;-72
2022/08/05 01:52:33;;;;;;;9.00;4.80;;;26.50;57.70;;;;;;5114403;27;20415;-70
2022/08/05 01:55:04;;;;;;;9.07;4.03;;;26.30;58.40;;;;;;5115886;27;20469;-73
2022/08/05 01:57:32;;;;;;;8.00;4.20;;;26.30;58.70;;;;;;5109512;27;20479;-73
2022/08/05 02:00:00;;;;;;;7.47;4.30;;;26.10;59.50;;;;;;5119181;27;20421;-72
2022/08/05 02:02:28;;;;;;;9.37;4.70;;;26.00;59.90;;;;;;5120236;27;20419;-71
2022/08/05 02:04:58;;;;;;;9.67;4.47;;;26.00;59.90;;;;;;5108673;27;20460;-73
2022/08/05 02:07:23;;;;;;;9.30;5.00;;;26.00;60.00;;;;;;5115653;27;20424;-73
2022/08/05 02:09:49;;;;;;;9.63;4.40;;;26.10;60.00;;;;;;5110434;27;20427;-72
2022/08/05 02:12:45;;;;;;;9.53;4.40;;;26.10;60.10;;;;;;5123507;27;20197;-72
2022/08/05 02:15:32;;;;;;;13.73;4.40;;;26.00;60.30;;;;;;5112143;27;20896;-74
2022/08/05 02:18:01;;;;;;;8.10;4.33;;;25.90;60.70;;;;;;5105295;27;20467;-71
2022/08/05 02:20:32;;;;;;;12.20;5.30;;;25.90;60.90;;;;;;5123876;27;20430;-71
2022/08/05 02:23:01;;;;;;;9.40;5.00;;;25.90;61.00;;;;;;5112090;27;20912;-70
2022/08/05 02:25:32;;;;;;;7.20;4.30;;;25.70;61.60;;;;;;5111803;27;20487;-70
2022/08/05 02:28:00;;;;;;;10.70;4.83;;;25.80;61.60;;;;;;5119811;27;20921;-71
2022/08/05 02:30:36;;;;;;;12.73;5.40;;;25.80;61.50;;;;;;5114686;27;20430;-71
2022/08/05 02:33:03;;;;;;;13.50;7.33;;;25.70;61.90;;;;;;5117736;27;20417;-71
2022/08/05 02:35:32;;;;;;;13.20;4.60;;;25.70;62.00;;;;;;5113351;27;20526;-70
2022/08/05 02:37:58;;;;;;;7.77;4.57;;;25.80;61.70;;;;;;5122932;27;20466;-70
2022/08/05 02:40:25;;;;;;;8.20;5.13;;;25.90;61.60;;;;;;5105077;27;20417;-70
2022/08/05 02:42:52;;;;;;;15.33;4.80;;;25.60;62.50;;;;;;5122583;27;20414;-71
2022/08/05 02:45:20;;;;;;;10.33;5.20;;;25.60;62.60;;;;;;5091282;27;20455;-71
2022/08/05 02:47:46;;;;;;;11.50;4.83;;;25.60;62.50;;;;;;5121649;27;20475;-72
2022/08/05 02:50:13;;;;;;;9.33;4.93;;;25.50;62.80;;;;;;5114721;27;20425;-70
2022/08/05 02:52:41;;;;;;;7.73;4.50;;;25.60;62.90;;;;;;5118154;27;20442;-73
2022/08/05 02:55:08;;;;;;;9.23;4.83;;;25.60;62.50;;;;;;5110980;27;20463;-71
2022/08/05 02:57:37;;;;;;;10.20;4.57;;;25.70;62.30;;;;;;5118939;27;20477;-71
2022/08/05 03:00:04;;;;;;;9.57;5.00;;;25.60;62.60;;;;;;5112957;27;20506;-73
2022/08/05 03:02:35;;;;;;;8.73;4.73;;;25.50;63.40;;;;;;5117262;27;20410;-70
2022/08/05 03:05:02;;;;;;;9.30;4.60;;;25.40;63.50;;;;;;5111864;27;20469;-71
2022/08/05 03:07:27;;;;;;;11.23;5.27;;;25.50;63.40;;;;;;5120087;27;20786;-73
2022/08/05 03:09:55;;;;;;;10.80;5.43;;;25.60;63.20;;;;;;5110037;27;20428;-73
2022/08/05 03:12:36;;;;;;;8.90;4.80;;;25.60;63.20;;;;;;5119830;27;20180;-74
2022/08/05 03:15:03;;;;;;;8.60;4.37;;;25.50;63.70;;;;;;5110609;27;20465;-71
2022/08/05 03:17:28;;;;;;;8.90;4.90;;;25.60;63.50;;;;;;5112639;27;20465;-72
2022/08/05 03:19:54;;;;;;;8.50;4.90;;;25.60;63.40;;;;;;5113050;27;20418;-70
2022/08/05 03:22:20;;;;;;;9.87;4.20;;;25.60;63.40;;;;;;5098932;27;20225;-71
2022/08/05 03:24:48;;;;;;;6.90;4.80;;;25.60;62.90;;;;;;5117653;27;20301;-71
2022/08/05 03:27:14;;;;;;;12.03;5.30;;;25.60;63.10;;;;;;5111217;27;20185;-72
2022/08/05 03:29:40;;;;;;;8.17;4.93;;;25.60;63.10;;;;;;5114839;27;20431;-74
2022/08/05 03:32:07;;;;;;;10.90;4.80;;;25.60;63.50;;;;;;5108924;28;20423;-71
2022/08/05 03:34:33;;;;;;;14.00;5.53;;;25.60;63.50;;;;;;5107165;27;20203;-72
2022/08/05 03:37:00;;;;;;;7.27;5.00;;;25.50;63.90;;;;;;5113062;27;20527;-73
2022/08/05 03:39:26;;;;;;;8.60;5.17;;;25.50;63.90;;;;;;5117128;27;20426;-72
2022/08/05 03:41:51;;;;;;;12.53;5.40;;;25.40;64.20;;;;;;5110745;27;20485;-71
2022/08/05 03:44:17;;;;;;;9.13;4.70;;;25.30;64.50;;;;;;5120427;27;20629;-71
2022/08/05 03:46:42;;;;;;;8.80;5.37;;;25.30;64.80;;;;;;5111157;27;20338;-71
2022/08/05 03:49:08;;;;;;;9.07;4.50;;;25.30;64.80;;;;;;5111451;27;20180;-71
2022/08/05 03:52:05;;;;;;;7.97;4.87;;;25.30;65.00;;;;;;5111333;27;20187;-71
2022/08/05 03:54:49;;;;;;;7.40;5.27;;;25.30;65.00;;;;;;5006620;28;20609;-71
2022/08/05 03:57:17;;;;;;;11.87;4.87;;;25.20;65.30;;;;;;5000414;28;20477;-72
2022/08/05 03:59:48;;;;;;;9.70;4.70;;;25.20;65.60;;;;;;5015869;28;20510;-73
2022/08/05 04:02:15;;;;;;;12.83;5.10;;;25.20;65.80;;;;;;5015632;28;20982;-72
2022/08/05 04:04:43;;;;;;;16.87;5.50;;;25.20;65.80;;;;;;5007578;28;20962;-72
2022/08/05 04:07:09;;;;;;;12.93;5.63;;;25.10;65.80;;;;;;5015365;28;21024;-71
2022/08/05 04:09:36;;;;;;;7.03;4.90;;;25.00;66.30;;;;;;5007279;28;20430;-73
2022/08/05 04:12:02;;;;;;;10.80;5.10;;;25.00;66.60;;;;;;5021583;28;20931;-72
2022/08/05 04:14:28;;;;;;;8.93;5.13;;;25.00;66.60;;;;;;4989476;28;20779;-73
2022/08/05 04:16:53;;;;;;;17.87;5.10;;;24.90;67.20;;;;;;5016752;28;20478;-73
2022/08/05 04:19:19;;;;;;;8.10;5.07;;;24.90;67.00;;;;;;5008311;28;20217;-73
2022/08/05 04:21:45;;;;;;;9.37;5.03;;;24.90;67.30;;;;;;4998022;28;20628;-72
2022/08/05 04:24:11;;;;;;;10.60;5.50;;;24.80;67.70;;;;;;5004324;28;20203;-72
2022/08/05 04:26:37;;;;;;;10.37;5.67;;;24.70;67.90;;;;;;5013909;28;20232;-73
2022/08/05 04:29:03;;;;;;;18.73;5.10;;;24.70;68.20;;;;;;5005503;28;20480;-72
2022/08/05 04:31:28;;;;;;;9.93;5.50;;;24.70;68.30;;;;;;5083964;27;20285;-72
2022/08/05 04:33:54;;;;;;;8.77;5.13;;;24.70;68.30;;;;;;5095268;28;20506;-72
2022/08/05 04:36:20;;;;;;;8.20;4.93;;;24.60;68.90;;;;;;5092911;28;20235;-71
2022/08/05 04:38:45;;;;;;;11.40;5.77;;;24.40;69.20;;;;;;5110113;27;20276;-71
2022/08/05 04:41:11;;;;;;;9.37;5.20;;;24.50;69.10;;;;;;5117677;27;20193;-72
2022/08/05 04:43:37;;;;;;;9.50;5.43;;;24.50;68.90;;;;;;5111107;27;20188;-72
2022/08/05 04:46:03;;;;;;;8.07;6.00;;;24.60;68.60;;;;;;5107120;27;20532;-72
2022/08/05 04:48:29;;;;;;;9.43;5.60;;;24.50;68.80;;;;;;5113084;27;20774;-73
2022/08/05 04:50:55;;;;;;;15.50;5.73;;;24.40;69.10;;;;;;5110839;28;20502;-73
2022/08/05 04:53:21;;;;;;;11.10;5.47;;;24.40;68.90;;;;;;5119661;27;20579;-73
2022/08/05 04:55:47;;;;;;;14.10;5.40;;;24.40;69.20;;;;;;5112115;27;20489;-73
2022/08/05 04:58:15;;;;;;;11.73;5.40;;;24.30;69.40;;;;;;5116404;27;20363;-73
2022/08/05 05:00:41;;;;;;;12.63;5.90;;;24.20;69.70;;;;;;5125310;27;20185;-73
2022/08/05 05:03:08;;;;;;;9.93;6.23;;;24.20;69.70;;;;;;5125119;28;20460;-73
2022/08/05 05:05:34;;;;;;;9.53;5.50;;;24.20;70.10;;;;;;5129651;28;20217;-72
2022/08/05 05:08:02;;;;;;;8.13;5.90;;;24.30;69.90;;;;;;5129430;28;20491;-73
2022/08/05 05:10:30;;;;;;;13.77;5.60;;;24.30;69.90;;;;;;5111496;28;20842;-72
2022/08/05 05:12:56;;;;;;;10.50;5.60;;;24.30;69.90;;;;;;5127488;28;20431;-72
2022/08/05 05:15:22;;;;;;;12.13;5.87;;;24.30;69.80;;;;;;5122837;28;20464;-73
2022/08/05 05:17:47;;;;;;;15.13;6.60;;;24.30;69.90;;;;;;5130558;28;20463;-72
2022/08/05 05:20:13;;;;;;;12.27;5.90;;;24.40;69.50;;;;;;5132907;28;20181;-71
2022/08/05 05:22:40;;;;;;;8.87;5.60;;;24.50;69.40;;;;;;5127008;28;20635;-74
2022/08/05 05:25:06;;;;;;;8.97;6.03;;;24.60;69.20;;;;;;5102146;28;20233;-74
2022/08/05 05:27:33;;;;;;;8.40;5.40;;;24.70;68.60;;;;;;5087143;28;20478;-73
2022/08/05 05:29:59;;;;;;;12.30;6.43;;;24.70;68.60;;;;;;5108923;28;20412;-73
2022/08/05 05:32:25;;;;;;;13.50;6.20;;;24.70;68.60;;;;;;5114146;28;20467;-72
2022/08/05 05:34:50;;;;;;;10.13;6.80;;;24.80;68.60;;;;;;5112157;28;20467;-74
2022/08/05 05:37:16;;;;;;;13.90;7.67;;;24.90;68.60;;;;;;5109223;28;20211;-72
2022/08/05 05:39:42;;;;;;;12.93;7.13;;;25.00;68.20;;;;;;5110990;28;20964;-73
2022/08/05 05:42:08;;;;;;;12.37;5.97;;;25.10;68.00;;;;;;5096712;28;20211;-73
2022/08/05 05:44:34;;;;;;;16.63;8.30;;;25.20;67.70;;;;;;5110256;28;20204;-73
2022/08/05 05:47:00;;;;;;;27.73;7.33;;;25.30;67.50;;;;;;5117277;28;20447;-74
2022/08/05 05:49:26;;;;;;;14.03;7.87;;;25.30;67.60;;;;;;5118120;28;20183;-73
2022/08/05 05:51:52;;;;;;;13.03;8.00;;;25.30;67.70;;;;;;5116583;28;20429;-73
2022/08/05 05:54:18;;;;;;;19.63;8.37;;;25.20;68.00;;;;;;5108753;28;20183;-73
2022/08/05 05:56:44;;;;;;;11.80;8.10;;;25.20;68.00;;;;;;5113689;27;20840;-73
2022/08/05 05:59:09;;;;;;;12.40;8.00;;;25.30;67.90;;;;;;5106508;27;21127;-73
2022/08/05 06:01:38;;;;;;;12.40;7.97;;;25.40;67.30;;;;;;5120486;27;20260;-73
2022/08/05 06:04:09;;;;;;;17.43;7.67;;;25.30;67.90;;;;;;5099553;28;20545;-73
2022/08/05 06:06:35;;;;;;;12.60;7.90;;;25.40;68.20;;;;;;5104938;27;20492;-73
2022/08/05 06:09:02;;;;;;;11.33;6.80;;;25.40;67.50;;;;;;5123908;27;20779;-73
2022/08/05 06:11:28;;;;;;;9.33;7.20;;;25.40;66.90;;;;;;5117170;27;20252;-72
2022/08/05 06:13:53;;;;;;;10.47;6.90;;;25.30;67.20;;;;;;5107522;27;20786;-72
2022/08/05 06:16:19;;;;;;;8.33;6.90;;;25.30;66.90;;;;;;5108933;27;20234;-72
2022/08/05 06:29:54;;;;;;;14.93;7.53;;;25.20;67.00;;;;;;5030355;22;20562;-73
2022/08/05 06:32:19;;;;;;;8.53;6.67;;;25.20;66.70;;;;;;5031653;28;20455;-74
2022/08/05 06:34:45;;;;;;;8.63;7.07;;;25.30;66.70;;;;;;5022011;28;20287;-74
2022/08/05 06:37:10;;;;;;;8.33;6.00;;;25.30;66.40;;;;;;5015507;28;20213;-73
2022/08/05 06:39:38;;;;;;;10.47;6.50;;;25.40;66.30;;;;;;5008328;28;20258;-74
2022/08/05 06:42:04;;;;;;;9.50;6.40;;;25.40;66.00;;;;;;5013519;28;20705;-72
2022/08/05 06:44:30;;;;;;;11.43;6.70;;;25.30;65.80;;;;;;5014639;28;20523;-74
2022/08/05 06:46:56;;;;;;;8.87;6.20;;;25.30;66.10;;;;;;5006384;28;20521;-73
2022/08/05 06:49:22;;;;;;;12.90;6.90;;;25.40;66.00;;;;;;5013234;28;20221;-73
2022/08/05 06:51:47;;;;;;;12.40;6.30;;;25.40;65.80;;;;;;5025503;28;20428;-73
2022/08/05 06:54:13;;;;;;;9.27;5.40;;;25.50;65.70;;;;;;5018164;28;20195;-74
2022/08/05 06:56:38;;;;;;;12.97;6.70;;;25.60;64.80;;;;;;5011335;28;20216;-74
2022/08/05 06:59:05;;;;;;;8.17;5.63;;;25.70;64.50;;;;;;5018873;28;20658;-72
2022/08/05 07:01:31;;;;;;;8.30;5.70;;;25.70;64.50;;;;;;5011356;28;20240;-74
2022/08/05 07:03:56;;;;;;;9.53;5.57;;;25.70;64.10;;;;;;5012763;28;20434;-73
2022/08/05 07:06:22;;;;;;;9.77;5.40;;;25.60;63.70;;;;;;5012522;28;20286;-73
2022/08/05 07:08:48;;;;;;;8.10;6.00;;;25.70;63.80;;;;;;5015471;28;20663;-73
2022/08/05 07:11:14;;;;;;;5.83;5.40;;;25.70;63.90;;;;;;5017854;28;20658;-73
2022/08/05 07:19:08;;;;;;;6.73;5.37;;;26.00;63.40;;;;;;5020812;28;20471;-72
2022/08/05 07:21:34;;;;;;;7.67;5.87;;;25.90;63.50;;;;;;5014488;28;20438;-72
2022/08/05 07:23:59;;;;;;;8.50;5.50;;;25.80;63.40;;;;;;5020925;28;20218;-74
2022/08/05 07:26:25;;;;;;;7.57;5.17;;;26.00;63.20;;;;;;5015073;28;20575;-73
2022/08/05 07:28:50;;;;;;;11.00;6.00;;;26.20;63.10;;;;;;5016005;28;20205;-73
2022/08/05 07:31:17;;;;;;;8.60;5.60;;;26.30;62.20;;;;;;5014837;28;20195;-72
2022/08/05 07:33:42;;;;;;;6.83;5.47;;;26.40;62.30;;;;;;5013639;28;20203;-72
2022/08/05 07:36:08;;;;;;;7.87;5.63;;;26.40;61.60;;;;;;5012899;28;20471;-74
2022/08/05 07:38:36;;;;;;;8.30;5.70;;;26.30;61.90;;;;;;5020515;28;20192;-72
2022/08/05 07:41:07;;;;;;;7.00;5.53;;;26.50;61.50;;;;;;5015223;28;20651;-74
2022/08/05 07:43:33;;;;;;;7.53;5.87;;;26.30;61.30;;;;;;5017393;28;20796;-73
2022/08/05 07:45:58;;;;;;;6.70;5.20;;;26.20;61.50;;;;;;5012243;28;20450;-74
2022/08/05 07:48:24;;;;;;;5.73;5.20;;;26.20;61.00;;;;;;5019257;28;20673;-72
2022/08/05 07:50:50;;;;;;;11.77;5.73;;;26.30;60.90;;;;;;5014343;28;20202;-73
2022/08/05 07:53:15;;;;;;;6.83;5.63;;;26.30;60.30;;;;;;5003499;28;20427;-73
2022/08/05 07:55:41;;;;;;;7.87;5.37;;;26.30;60.90;;;;;;5012205;28;20285;-73
2022/08/05 07:58:07;;;;;;;10.23;5.07;;;26.30;60.60;;;;;;5019971;28;20215;-72
2022/08/05 08:00:32;;;;;;;8.93;5.50;;;26.40;60.40;;;;;;5012773;28;20190;-72
2022/08/05 08:02:58;;;;;;;5.60;5.30;;;26.40;60.00;;;;;;5018556;28;20184;-73
2022/08/05 08:05:25;;;;;;;11.50;5.77;;;26.50;59.90;;;;;;5011947;28;20634;-72
2022/08/05 08:07:51;;;;;;;10.60;5.03;;;26.50;59.60;;;;;;5017115;28;20216;-72
2022/08/05 08:10:16;;;;;;;5.30;3.80;;;26.60;58.70;;;;;;5016575;28;20430;-73
2022/08/05 08:12:42;;;;;;;5.10;3.80;;;26.70;56.90;;;;;;4993558;28;20311;-72
2022/08/05 08:15:09;;;;;;;4.93;4.07;;;26.90;55.70;;;;;;5011610;28;20319;-72
2022/08/05 08:17:35;;;;;;;7.97;3.17;;;26.90;54.60;;;;;;5012343;28;20222;-72
2022/08/05 08:20:03;;;;;;;6.10;4.00;;;26.80;53.80;;;;;;5027160;28;20514;-71
2022/08/05 08:22:29;;;;;;;7.37;3.33;;;26.80;54.40;;;;;;5017479;28;20182;-72
2022/08/05 08:24:54;;;;;;;5.73;3.73;;;26.90;53.40;;;;;;5013116;28;21035;-73
2022/08/05 08:27:21;;;;;;;4.40;3.33;;;26.90;53.60;;;;;;5012111;28;20189;-73
2022/08/05 08:29:47;;;;;;;7.03;3.43;;;26.90;53.70;;;;;;5017612;28;20250;-73
2022/08/05 08:32:12;;;;;;;3.80;3.30;;;27.10;53.40;;;;;;5015568;28;20478;-72
2022/08/05 08:34:38;;;;;;;6.27;3.50;;;27.00;53.40;;;;;;5011731;28;21002;-73
2022/08/05 08:37:04;;;;;;;5.10;3.30;;;27.10;53.40;;;;;;5011010;28;20207;-73
2022/08/05 08:39:29;;;;;;;6.00;3.60;;;27.20;53.60;;;;;;5016244;28;20270;-72
2022/08/05 08:41:55;;;;;;;6.03;3.23;;;27.40;53.00;;;;;;5012854;28;20179;-72
2022/08/05 08:44:24;;;;;;;5.50;3.67;;;27.50;52.80;;;;;;5015730;28;20250;-72
2022/08/05 08:46:50;;;;;;;6.57;3.13;;;27.50;52.50;;;;;;5021606;28;20437;-74
2022/08/05 08:49:18;;;;;;;4.83;3.63;;;27.50;52.60;;;;;;5014304;28;20451;-71
2022/08/05 08:51:48;;;;;;;4.40;3.30;;;27.50;52.80;;;;;;5018647;28;20422;-73
2022/08/05 08:54:15;;;;;;;5.50;3.63;;;27.50;52.80;;;;;;5019029;28;20790;-73
2022/08/05 08:56:41;;;;;;;5.10;3.47;;;27.40;51.80;;;;;;5010810;28;20664;-73
2022/08/05 08:59:07;;;;;;;3.93;3.07;;;27.40;52.50;;;;;;5019467;28;20466;-73
2022/08/05 09:01:33;;;;;;;11.57;3.73;;;27.40;52.10;;;;;;5011063;28;20488;-73
2022/08/05 09:03:59;;;;;;;7.80;3.50;;;27.60;52.00;;;;;;5011471;28;20455;-72
2022/08/05 09:06:29;;;;;;;4.00;3.47;;;27.80;52.00;;;;;;5011011;28;20303;-72
2022/08/05 09:08:56;;;;;;;3.80;2.83;;;28.10;51.20;;;;;;5015846;28;20437;-73
2022/08/05 09:11:22;;;;;;;6.23;3.47;;;28.10;50.50;;;;;;4997167;28;20441;-74
2022/08/05 09:13:48;;;;;;;5.63;3.53;;;28.20;50.20;;;;;;5011707;28;20438;-74
2022/08/05 09:16:13;;;;;;;4.53;3.27;;;28.40;50.10;;;;;;5005972;28;20206;-73
2022/08/05 09:18:39;;;;;;;3.43;2.90;;;28.30;49.10;;;;;;5009462;28;20435;-73
2022/08/05 09:21:05;;;;;;;5.47;3.27;;;28.20;49.30;;;;;;5005614;28;20656;-73
2022/08/05 09:23:31;;;;;;;4.70;2.93;;;28.30;49.00;;;;;;5016594;28;20273;-73
2022/08/05 09:26:11;;;;;;;6.83;3.67;;;28.40;48.50;;;;;;5008127;28;20468;-72
2022/08/05 09:28:39;;;;;;;5.77;3.33;;;28.50;48.20;;;;;;5012911;28;20233;-73
2022/08/05 09:31:14;;;;;;;6.20;3.30;;;28.60;48.20;;;;;;4999088;28;20420;-73
2022/08/05 09:33:54;;;;;;;5.67;3.27;;;28.70;47.70;;;;;;5018187;28;20427;-72
2022/08/05 09:36:20;;;;;;;3.60;3.00;;;28.60;47.80;;;;;;5007264;28;21024;-74
2022/08/05 09:39:00;;;;;;;5.50;3.43;;;28.70;47.80;;;;;;5015411;28;20421;-72
2022/08/05 09:41:26;;;;;;;5.73;3.03;;;28.80;47.10;;;;;;5007892;28;21081;-73
2022/08/05 09:43:51;;;;;;;3.83;3.10;;;28.80;47.30;;;;;;5020364;28;20465;-73
2022/08/05 09:46:32;;;;;;;4.07;3.20;;;29.00;46.90;;;;;;5014403;28;20205;-72
2022/08/05 09:49:03;;;;;;;4.83;3.30;;;29.00;46.70;;;;;;5017710;28;20657;-73
2022/08/05 09:51:37;;;;;;;5.90;3.30;;;29.10;46.50;;;;;;5020289;28;20512;-73
2022/08/05 09:54:06;;;;;;;5.47;3.37;;;28.90;46.60;;;;;;5017120;28;20846;-73
2022/08/05 09:56:33;;;;;;;4.93;2.90;;;28.90;46.60;;;;;;5015061;28;20531;-72
2022/08/05 09:59:11;;;;;;;5.70;3.27;;;28.80;47.10;;;;;;5010521;28;20421;-73
2022/08/05 10:01:41;;;;;;;5.60;3.60;;;28.80;47.10;;;;;;5012802;28;20426;-73
2022/08/05 10:04:11;;;;;;;4.90;2.77;;;29.00;46.60;;;;;;5009753;28;20455;-75
2022/08/05 10:06:39;;;;;;;4.67;3.20;;;29.10;46.60;;;;;;5017684;28;20534;-74
2022/08/05 10:09:14;;;;;;;3.63;3.00;;;29.40;46.20;;;;;;5019415;28;20531;-74
2022/08/05 10:11:40;;;;;;;5.60;2.97;;;29.80;44.70;;;;;;5017696;28;20504;-73
2022/08/05 10:14:26;;;;;;;5.13;3.30;;;30.00;44.30;;;;;;5009146;28;20421;-73
2022/08/05 10:16:56;;;;;;;4.93;2.90;;;30.30;43.10;;;;;;5010709;28;20866;-72
2022/08/05 10:19:23;;;;;;;5.70;3.07;;;30.20;43.10;;;;;;5023794;28;20416;-74
2022/08/05 10:21:49;;;;;;;3.77;2.90;;;30.30;43.50;;;;;;5017960;28;20509;-73
2022/08/05 10:24:17;;;;;;;5.00;2.83;;;30.90;42.70;;;;;;5017947;28;20500;-75
2022/08/05 10:26:45;;;;;;;5.20;3.40;;;31.40;41.40;;;;;;5019869;28;20197;-74
2022/08/05 10:29:11;;;;;;;7.70;3.10;;;31.60;41.00;;;;;;5017016;28;20460;-73
2022/08/05 10:31:40;;;;;;;3.70;2.97;;;31.50;40.70;;;;;;5024132;28;20416;-74
2022/08/05 10:34:08;;;;;;;4.60;3.60;;;31.50;40.60;;;;;;5016422;28;20189;-73
2022/08/05 10:36:38;;;;;;;4.20;3.03;;;31.50;40.60;;;;;;4996161;28;20496;-73
2022/08/05 10:39:09;;;;;;;4.43;3.33;;;31.70;40.30;;;;;;4999284;28;20508;-74
2022/08/05 10:41:44;;;;;;;3.73;2.90;;;31.90;40.00;;;;;;5017334;28;20417;-74
2022/08/05 10:44:14;;;;;;;4.20;3.40;;;31.90;39.80;;;;;;5015635;28;20420;-75
2022/08/05 10:46:51;;;;;;;4.27;2.83;;;31.30;40.60;;;;;;5013682;28;20463;-73
2022/08/05 10:49:18;;;;;;;4.13;3.40;;;31.60;40.40;;;;;;5015074;28;20953;-74
2022/08/05 10:51:46;;;;;;;4.07;2.80;;;32.10;40.20;;;;;;5011249;28;20566;-74
2022/08/05 10:54:13;;;;;;;4.83;3.20;;;32.60;38.70;;;;;;4996188;28;20433;-74
2022/08/05 10:56:48;;;;;;;6.50;3.17;;;32.90;37.80;;;;;;5008477;28;20538;-74
2022/08/05 10:59:18;;;;;;;4.50;3.30;;;33.10;37.40;;;;;;5014865;28;20718;-73
2022/08/05 11:01:44;;;;;;;8.10;3.17;;;33.20;37.20;;;;;;5015599;28;20452;-74
2022/08/05 11:04:16;;;;;;;6.00;3.57;;;32.90;37.60;;;;;;5012371;28;20520;-73
2022/08/05 11:06:57;;;;;;;5.60;2.80;;;32.90;37.60;;;;;;5012910;28;20455;-73
2022/08/05 11:09:25;;;;;;;4.73;3.40;;;32.80;37.60;;;;;;5015754;28;20592;-73
2022/08/05 11:11:52;;;;;;;3.10;2.63;;;33.10;37.60;;;;;;5013846;28;20429;-75
2022/08/05 11:14:31;;;;;;;4.00;2.87;;;33.30;37.20;;;;;;5021265;28;20424;-74
2022/08/05 11:17:33;;;;;;;4.97;3.50;;;33.50;36.30;;;;;;5018270;28;20526;-74
2022/08/05 11:19:59;;;;;;;3.50;3.00;;;33.50;36.70;;;;;;5012199;28;20455;-75
2022/08/05 11:22:37;;;;;;;5.07;3.60;;;32.60;37.60;;;;;;5020449;28;20922;-73
2022/08/05 11:25:34;;;;;;;4.93;4.00;;;32.00;39.00;;;;;;5019060;28;20542;-73
2022/08/05 11:28:11;;;;;;;3.90;3.27;;;32.20;38.80;;;;;;4997510;28;20981;-75
2022/08/05 11:30:55;;;;;;;4.33;3.20;;;32.80;37.90;;;;;;5014158;28;20467;-73
2022/08/05 11:33:35;;;;;;;4.93;3.37;;;32.40;38.30;;;;;;5014081;28;20515;-72
2022/08/05 11:36:02;;;;;;;4.27;3.30;;;32.20;38.80;;;;;;5011012;28;20523;-73
2022/08/05 11:38:43;;;;;;;3.80;3.20;;;32.10;39.40;;;;;;5014011;28;20467;-73
2022/08/05 11:41:15;;;;;;;4.00;3.43;;;33.00;38.20;;;;;;5008224;28;20416;-73
2022/08/05 11:43:57;;;;;;;5.97;3.63;;;33.00;37.40;;;;;;5010613;28;20533;-75
2022/08/05 11:46:37;;;;;;;6.23;3.83;;;32.60;38.30;;;;;;5015895;28;20467;-72
2022/08/05 11:49:05;;;;;;;4.17;3.17;;;31.90;39.10;;;;;;5011761;28;20409;-73
2022/08/05 11:51:31;;;;;;;5.70;3.50;;;31.50;39.90;;;;;;5007060;28;20424;-72
2022/08/05 11:53:57;;;;;;;4.53;3.73;;;31.50;40.40;;;;;;5007533;28;20433;-73
2022/08/05 11:56:24;;;;;;;7.57;3.73;;;31.30;40.70;;;;;;5023125;28;20209;-73
2022/08/05 11:58:51;;;;;;;5.70;3.53;;;31.50;40.40;;;;;;5014833;28;20927;-72
2022/08/05 12:01:21;;;;;;;8.63;3.70;;;31.70;40.00;;;;;;5015751;28;20459;-74
2022/08/05 12:03:46;;;;;;;5.33;3.60;;;32.00;39.60;;;;;;5010142;28;20464;-74
2022/08/05 12:06:14;;;;;;;4.77;3.47;;;32.40;39.10;;;;;;5011711;28;21028;-73
2022/08/05 12:08:46;;;;;;;5.40;3.30;;;32.90;38.40;;;;;;5013370;28;20684;-73
2022/08/05 12:11:23;;;;;;;3.30;2.97;;;33.60;37.40;;;;;;5019681;28;20977;-73
2022/08/05 12:13:55;;;;;;;6.87;4.60;;;34.00;36.00;;;;;;5008264;28;20441;-74
2022/08/05 12:16:23;;;;;;;4.93;3.80;;;34.10;35.90;;;;;;4997512;28;20472;-73
2022/08/05 12:18:49;;;;;;;4.20;3.47;;;34.10;36.70;;;;;;5013887;28;20459;-74
2022/08/05 12:21:21;;;;;;;4.63;4.07;;;34.00;37.20;;;;;;5009528;28;20443;-72
2022/08/05 12:23:56;;;;;;;5.27;3.73;;;34.00;37.10;;;;;;5012950;28;20416;-75
2022/08/05 12:26:22;;;;;;;10.70;3.93;;;33.70;37.40;;;;;;5012410;28;21360;-73
2022/08/05 12:28:47;;;;;;;6.60;3.97;;;33.20;38.30;;;;;;4969082;28;1101037;-72
2022/08/05 12:31:13;;;;;;;5.50;4.10;;;32.70;39.10;;;;;;5010665;28;20201;-73
2022/08/05 12:33:39;;;;;;;5.87;4.40;;;32.30;39.80;;;;;;5020361;28;20193;-73
2022/08/05 12:36:06;;;;;;;8.17;4.40;;;31.80;41.50;;;;;;5003034;28;20217;-73
2022/08/05 12:38:32;;;;;;;6.23;4.40;;;31.80;41.60;;;;;;5009219;28;20217;-73
2022/08/05 12:40:58;;;;;;;5.43;3.50;;;31.70;42.00;;;;;;5008420;28;20429;-72
2022/08/05 12:43:24;;;;;;;5.07;3.90;;;31.50;42.40;;;;;;5014028;28;20662;-73
2022/08/05 12:45:53;;;;;;;5.70;3.97;;;31.40;42.60;;;;;;5011209;28;20214;-71
2022/08/05 12:48:20;;;;;;;9.27;3.90;;;31.20;43.10;;;;;;5013127;28;20673;-72
2022/08/05 12:51:26;;;;;;;7.17;3.90;;;30.80;43.90;;;;;;5010471;28;20510;-73
2022/08/05 12:53:58;;;;;;;6.00;3.93;;;30.90;43.90;;;;;;4914966;29;20467;-72
2022/08/05 12:56:24;;;;;;;6.20;4.30;;;30.90;43.90;;;;;;4912991;29;20919;-74
2022/08/05 12:59:16;;;;;;;5.80;3.83;;;31.00;44.10;;;;;;4912074;29;20438;-74
2022/08/05 13:01:44;;;;;;;10.20;4.50;;;31.20;43.10;;;;;;4908196;29;20266;-73
2022/08/05 13:04:10;;;;;;;5.80;4.70;;;31.40;43.00;;;;;;4916794;29;21068;-73
2022/08/05 13:06:43;;;;;;;6.73;4.43;;;31.50;42.80;;;;;;4908425;29;21009;-73
2022/08/05 13:09:10;;;;;;;7.27;4.03;;;31.90;41.90;;;;;;4907885;29;20447;-75